createdAt,value
2018-08-31T00:01:16.923Z,4.55
2018-08-31T00:06:02.896Z,4.42
2018-08-31T00:08:50.506Z,2.80
2018-08-31T00:11:42.920Z,3.35
2018-08-31T00:14:16.136Z,3.87
2018-08-31T00:16:49.964Z,3.05
2018-08-31T00:19:23.081Z,3.05
2018-08-31T00:21:56.269Z,3.58
2018-08-31T00:24:41.113Z,3.08
2018-08-31T00:27:25.909Z,2.92
2018-08-31T00:30:10.743Z,2.87
2018-08-31T00:33:11.303Z,3.58
2018-08-31T00:38:03.237Z,3.25
2018-08-31T00:42:51.139Z,3.58
2018-08-31T00:45:26.574Z,3.73
2018-08-31T00:48:00.249Z,3.35
2018-08-31T00:50:33.431Z,3.67
2018-08-31T00:53:06.855Z,4.15
2018-08-31T00:55:40.051Z,3.00
2018-08-31T00:58:17.710Z,3.35
2018-08-31T01:00:50.783Z,4.03
2018-08-31T01:03:23.848Z,3.60
2018-08-31T01:05:56.874Z,3.08
2018-08-31T01:08:29.952Z,3.15
2018-08-31T01:11:03.672Z,3.85
2018-08-31T01:13:36.770Z,3.30
2018-08-31T01:16:09.925Z,4.67
2018-08-31T01:18:43.049Z,2.80
2018-08-31T01:21:16.272Z,3.17
2018-08-31T01:23:49.315Z,3.27
2018-08-31T01:26:22.459Z,3.10
2018-08-31T01:28:55.517Z,2.70
2018-08-31T01:31:28.458Z,3.12
2018-08-31T01:34:01.533Z,3.87
2018-08-31T01:36:34.594Z,3.53
2018-08-31T01:39:07.798Z,3.90
2018-08-31T01:41:40.970Z,3.23
2018-08-31T01:44:15.592Z,4.20
2018-08-31T01:46:49.209Z,2.75
2018-08-31T01:49:22.286Z,3.02
2018-08-31T01:51:57.596Z,3.15
2018-08-31T01:54:30.627Z,3.87
2018-08-31T01:57:04.040Z,3.97
2018-08-31T01:59:37.037Z,3.63
2018-08-31T02:02:10.190Z,4.47
2018-08-31T02:04:43.958Z,3.17
2018-08-31T02:07:16.978Z,3.23
2018-08-31T02:09:50.043Z,3.83
2018-08-31T02:12:23.167Z,3.33
2018-08-31T02:14:56.259Z,3.07
2018-08-31T02:17:29.516Z,3.53
2018-08-31T02:20:02.611Z,3.05
2018-08-31T02:22:35.839Z,3.50
2018-08-31T02:25:08.933Z,3.17
2018-08-31T02:27:42.169Z,3.90
2018-08-31T02:30:15.176Z,3.83
2018-08-31T02:32:48.285Z,4.13
2018-08-31T02:35:21.496Z,3.30
2018-08-31T02:37:54.512Z,3.17
2018-08-31T02:40:27.824Z,3.63
2018-08-31T02:43:01.026Z,3.10
2018-08-31T02:45:34.263Z,3.33
2018-08-31T02:48:07.454Z,3.57
2018-08-31T02:50:40.621Z,3.10
2018-08-31T02:53:13.803Z,3.20
2018-08-31T02:55:47.099Z,3.10
2018-08-31T02:58:20.165Z,3.73
2018-08-31T03:00:53.343Z,3.57
2018-08-31T03:03:26.451Z,3.00
2018-08-31T03:05:59.687Z,3.30
2018-08-31T03:08:32.974Z,3.77
2018-08-31T03:11:05.943Z,3.67
2018-08-31T03:13:44.245Z,3.83
2018-08-31T03:16:17.641Z,3.00
2018-08-31T03:18:50.730Z,3.07
2018-08-31T03:21:23.886Z,2.83
2018-08-31T03:23:56.952Z,3.23
2018-08-31T03:26:29.983Z,3.17
2018-08-31T03:29:03.093Z,3.37
2018-08-31T03:31:36.204Z,3.03
2018-08-31T03:34:09.252Z,3.33
2018-08-31T03:36:42.219Z,3.23
2018-08-31T03:39:15.278Z,4.07
2018-08-31T03:41:48.288Z,3.43
2018-08-31T03:44:21.450Z,3.13
2018-08-31T03:46:54.410Z,3.08
2018-08-31T03:49:27.447Z,3.00
2018-08-31T03:52:00.452Z,3.50
2018-08-31T03:54:33.591Z,3.43
2018-08-31T03:57:06.655Z,3.50
2018-08-31T03:59:39.963Z,3.47
2018-08-31T04:02:12.883Z,3.10
2018-08-31T04:04:45.913Z,2.80
2018-08-31T04:07:19.114Z,2.53
2018-08-31T04:09:52.342Z,2.83
2018-08-31T04:12:25.459Z,3.53
2018-08-31T04:14:58.611Z,2.93
2018-08-31T04:17:31.899Z,4.47
2018-08-31T04:20:06.043Z,3.67
2018-08-31T04:22:39.073Z,5.10
2018-08-31T04:25:12.372Z,4.10
2018-08-31T04:27:45.435Z,3.93
2018-08-31T04:30:18.597Z,3.40
2018-08-31T04:32:51.728Z,2.80
2018-08-31T04:35:24.715Z,3.07
2018-08-31T04:37:57.670Z,3.03
2018-08-31T04:40:30.674Z,3.43
2018-08-31T04:43:03.697Z,3.87
2018-08-31T04:45:36.683Z,3.00
2018-08-31T04:48:09.766Z,3.20
2018-08-31T04:50:43.162Z,3.40
2018-08-31T04:53:16.265Z,3.13
2018-08-31T04:55:49.283Z,3.17
2018-08-31T04:58:22.476Z,3.37
2018-08-31T05:00:55.604Z,3.73
2018-08-31T05:03:28.577Z,4.10
2018-08-31T05:06:01.607Z,4.20
2018-08-31T05:08:34.593Z,4.03
2018-08-31T05:11:07.623Z,3.47
2018-08-31T05:13:40.772Z,3.45
2018-08-31T05:16:13.904Z,4.00
2018-08-31T05:18:47.061Z,3.63
2018-08-31T05:21:20.202Z,3.63
2018-08-31T05:23:53.350Z,3.60
2018-08-31T05:26:26.472Z,3.17
2018-08-31T05:28:59.629Z,3.58
2018-08-31T05:31:32.663Z,3.35
2018-08-31T05:34:05.839Z,3.57
2018-08-31T05:36:38.735Z,4.00
2018-08-31T05:39:12.050Z,4.07
2018-08-31T05:41:45.281Z,3.63
2018-08-31T05:44:18.370Z,3.63
2018-08-31T05:46:51.355Z,3.53
2018-08-31T05:49:24.556Z,3.08
2018-08-31T05:51:57.777Z,3.30
2018-08-31T05:54:30.734Z,3.07
2018-08-31T05:57:03.927Z,2.90
2018-08-31T05:59:37.109Z,3.47
2018-08-31T06:02:10.175Z,4.13
2018-08-31T06:04:43.389Z,3.20
2018-08-31T06:07:16.553Z,4.93
2018-08-31T06:09:49.588Z,3.03
2018-08-31T06:12:22.592Z,4.53
2018-08-31T06:14:55.851Z,3.07
2018-08-31T06:17:28.975Z,4.97
2018-08-31T06:20:01.986Z,5.23
2018-08-31T06:22:35.083Z,4.60
2018-08-31T06:25:08.288Z,3.57
2018-08-31T06:27:41.610Z,4.10
2018-08-31T06:30:14.608Z,4.33
2018-08-31T06:32:47.801Z,4.30
2018-08-31T06:35:20.933Z,3.97
2018-08-31T06:37:54.069Z,4.50
2018-08-31T06:40:27.093Z,4.07
2018-08-31T06:43:00.127Z,4.25
2018-08-31T06:45:33.227Z,3.97
2018-08-31T06:48:06.254Z,4.07
2018-08-31T06:50:39.855Z,3.70
2018-08-31T06:53:12.993Z,3.77
2018-08-31T06:55:46.316Z,3.97
2018-08-31T06:58:20.537Z,4.10
2018-08-31T07:00:53.590Z,4.27
2018-08-31T07:03:26.675Z,3.50
2018-08-31T07:05:59.733Z,4.20
2018-08-31T07:08:32.774Z,3.75
2018-08-31T07:11:05.822Z,5.15
2018-08-31T07:13:38.836Z,5.70
2018-08-31T07:16:12.650Z,3.57
2018-08-31T07:18:45.664Z,4.28
2018-08-31T07:21:18.820Z,4.43
2018-08-31T07:23:51.907Z,4.93
2018-08-31T07:26:25.587Z,4.42
2018-08-31T07:28:58.551Z,4.75
2018-08-31T07:31:31.659Z,5.83
2018-08-31T07:34:04.872Z,5.62
2018-08-31T07:36:37.979Z,6.47
2018-08-31T07:39:11.217Z,4.57
2018-08-31T07:41:44.157Z,5.23
2018-08-31T07:44:18.413Z,5.30
2018-08-31T07:46:51.620Z,4.90
2018-08-31T07:49:24.905Z,5.40
2018-08-31T07:51:58.053Z,5.15
2018-08-31T07:54:31.065Z,5.33
2018-08-31T07:57:04.258Z,6.30
2018-08-31T07:59:37.323Z,6.10
2018-08-31T08:02:10.276Z,6.17
2018-08-31T08:04:43.374Z,5.27
2018-08-31T08:12:11.273Z,5.78
2018-08-31T08:14:44.265Z,6.07
2018-08-31T08:17:17.485Z,6.03
2018-08-31T08:19:50.631Z,7.63
2018-08-31T08:22:24.380Z,7.20
2018-08-31T08:24:57.545Z,6.95
2018-08-31T08:27:30.564Z,6.53
2018-08-31T08:30:04.129Z,5.23
2018-08-31T08:32:37.223Z,6.60
2018-08-31T08:35:10.360Z,4.58
2018-08-31T08:37:43.492Z,5.10
2018-08-31T08:40:16.598Z,5.20
2018-08-31T08:42:49.562Z,4.83
2018-08-31T08:45:22.632Z,4.77
2018-08-31T08:47:55.887Z,5.47
2018-08-31T08:50:28.965Z,5.03
2018-08-31T08:53:02.049Z,5.50
2018-08-31T08:55:35.019Z,5.10
2018-08-31T08:58:08.386Z,5.60
2018-08-31T09:00:41.391Z,5.85
2018-08-31T09:03:14.571Z,5.22
2018-08-31T09:05:47.643Z,3.95
2018-08-31T09:08:20.751Z,4.35
2018-08-31T09:10:53.861Z,4.40
2018-08-31T09:13:27.015Z,4.17
2018-08-31T09:16:00.572Z,4.58
2018-08-31T09:18:33.759Z,4.78
2018-08-31T09:21:06.931Z,4.33
2018-08-31T09:23:40.041Z,4.87
2018-08-31T09:26:13.715Z,5.15
2018-08-31T09:28:47.043Z,5.10
2018-08-31T09:31:20.270Z,5.40
2018-08-31T09:33:53.515Z,4.42
2018-08-31T09:36:26.582Z,4.50
2018-08-31T09:38:59.704Z,6.90
2018-08-31T09:41:32.930Z,4.05
2018-08-31T09:44:06.102Z,4.50
2018-08-31T09:46:39.196Z,4.95
2018-08-31T09:49:12.560Z,3.80
2018-08-31T09:51:45.680Z,6.85
2018-08-31T09:54:18.781Z,6.15
2018-08-31T09:56:51.950Z,6.58
2018-08-31T09:59:25.123Z,4.72
2018-08-31T10:02:04.897Z,5.10
2018-08-31T10:04:37.909Z,5.10
2018-08-31T10:07:11.167Z,4.65
2018-08-31T10:09:44.245Z,5.12
2018-08-31T10:12:17.362Z,6.28
2018-08-31T10:14:50.387Z,7.28
2018-08-31T10:17:23.443Z,5.17
2018-08-31T10:19:56.442Z,6.15
2018-08-31T10:22:30.136Z,4.62
2018-08-31T10:25:03.237Z,5.25
2018-08-31T10:27:36.375Z,5.17
2018-08-31T10:30:09.568Z,5.70
2018-08-31T10:32:42.586Z,7.85
2018-08-31T10:35:15.614Z,7.87
2018-08-31T10:37:49.018Z,5.30
2018-08-31T10:40:22.427Z,4.80
2018-08-31T10:42:55.558Z,5.85
2018-08-31T10:45:28.543Z,5.00
2018-08-31T10:48:02.459Z,5.92
2018-08-31T10:50:35.485Z,5.78
2018-08-31T10:53:08.566Z,5.05
2018-08-31T10:55:41.975Z,5.37
2018-08-31T10:58:15.136Z,4.75
2018-08-31T11:00:48.354Z,5.28
2018-08-31T11:03:21.359Z,4.37
2018-08-31T11:05:54.427Z,5.65
2018-08-31T11:08:27.599Z,5.17
2018-08-31T11:11:00.795Z,5.92
2018-08-31T11:13:33.971Z,4.78
2018-08-31T11:16:07.133Z,8.50
2018-08-31T11:18:40.129Z,4.55
2018-08-31T11:21:13.255Z,5.30
2018-08-31T11:23:46.328Z,6.80
2018-08-31T11:26:19.421Z,4.83
2018-08-31T11:28:52.684Z,5.45
2018-08-31T11:31:25.724Z,5.10
2018-08-31T11:33:58.704Z,5.62
2018-08-31T11:36:31.718Z,5.70
2018-08-31T11:39:07.153Z,5.50
2018-08-31T11:41:40.181Z,4.85
2018-08-31T11:44:13.289Z,5.65
2018-08-31T11:46:46.289Z,5.78
2018-08-31T11:49:19.483Z,6.80
2018-08-31T11:51:52.679Z,6.80
2018-08-31T11:54:25.793Z,5.00
2018-08-31T11:56:59.959Z,7.15
2018-08-31T11:59:33.245Z,4.42
2018-08-31T12:02:06.486Z,5.78
2018-08-31T12:04:39.608Z,5.05
2018-08-31T12:07:12.929Z,4.80
2018-08-31T12:09:46.106Z,4.95
2018-08-31T12:12:19.226Z,5.35
2018-08-31T12:14:52.402Z,5.00
2018-08-31T12:17:25.512Z,5.17
2018-08-31T12:19:58.634Z,5.22
2018-08-31T12:22:31.802Z,5.95
2018-08-31T12:25:05.528Z,6.67
2018-08-31T12:27:42.584Z,5.08
2018-08-31T12:30:15.661Z,4.87
2018-08-31T12:32:48.651Z,4.55
2018-08-31T12:35:21.631Z,4.55
2018-08-31T12:37:54.820Z,4.33
2018-08-31T12:40:27.942Z,5.12
2018-08-31T12:43:00.911Z,5.33
2018-08-31T12:45:33.843Z,4.65
2018-08-31T12:48:06.994Z,5.62
2018-08-31T12:50:40.138Z,5.85
2018-08-31T12:53:13.187Z,5.83
2018-08-31T12:55:46.260Z,4.15
2018-08-31T12:58:19.931Z,6.08
2018-08-31T13:00:53.077Z,4.45
2018-08-31T13:03:26.228Z,6.03
2018-08-31T13:05:59.194Z,5.50
2018-08-31T13:08:32.315Z,6.03
2018-08-31T13:11:05.527Z,5.15
2018-08-31T13:13:38.619Z,5.35
2018-08-31T13:16:11.639Z,5.25
2018-08-31T13:18:44.583Z,5.10
2018-08-31T13:21:17.928Z,5.97
2018-08-31T13:23:51.013Z,5.72
2018-08-31T13:26:24.100Z,5.35
2018-08-31T13:28:57.081Z,5.22
2018-08-31T13:31:31.013Z,4.30
2018-08-31T13:34:04.269Z,4.12
2018-08-31T13:36:37.227Z,4.97
2018-08-31T13:39:10.233Z,4.67
2018-08-31T13:41:43.257Z,5.97
2018-08-31T13:44:16.341Z,4.95
2018-08-31T13:46:49.480Z,8.10
2018-08-31T13:49:22.541Z,5.03
2018-08-31T13:51:55.638Z,6.85
2018-08-31T13:54:28.699Z,4.35
2018-08-31T13:57:01.736Z,4.47
2018-08-31T13:59:34.854Z,4.80
2018-08-31T14:02:07.910Z,4.42
2018-08-31T14:04:41.132Z,4.47
2018-08-31T14:07:14.280Z,3.95
2018-08-31T14:09:47.561Z,4.45
2018-08-31T14:12:20.706Z,3.83
2018-08-31T14:14:53.888Z,4.72
2018-08-31T14:17:27.129Z,4.50
2018-08-31T14:20:00.357Z,4.75
2018-08-31T14:22:33.523Z,5.47
2018-08-31T14:25:06.479Z,6.42
2018-08-31T14:27:39.735Z,7.78
2018-08-31T14:30:12.717Z,5.72
2018-08-31T14:32:45.783Z,4.75
2018-08-31T14:35:18.892Z,4.47
2018-08-31T14:37:52.069Z,4.95
2018-08-31T14:40:25.254Z,5.87
2018-08-31T14:42:58.448Z,5.03
2018-08-31T14:45:31.686Z,5.78
2018-08-31T14:48:04.761Z,6.05
2018-08-31T14:50:37.885Z,5.35
2018-08-31T14:53:10.855Z,5.05
2018-08-31T14:55:44.403Z,4.83
2018-08-31T14:58:17.512Z,4.37
2018-08-31T15:00:50.702Z,4.87
2018-08-31T15:03:23.663Z,5.37
2018-08-31T15:05:56.932Z,4.83
2018-08-31T15:08:29.907Z,4.20
2018-08-31T15:11:02.949Z,3.87
2018-08-31T15:13:36.241Z,5.42
2018-08-31T15:16:09.301Z,4.95
2018-08-31T15:18:42.569Z,4.50
2018-08-31T15:21:15.689Z,4.30
2018-08-31T15:23:48.782Z,5.08
2018-08-31T15:26:21.804Z,4.08
2018-08-31T15:28:54.947Z,4.45
2018-08-31T15:31:28.535Z,5.50
2018-08-31T15:34:01.871Z,5.75
2018-08-31T15:36:35.095Z,5.37
2018-08-31T15:39:09.164Z,4.80
2018-08-31T15:41:42.205Z,6.00
2018-08-31T15:44:15.388Z,4.47
2018-08-31T15:46:48.381Z,5.85
2018-08-31T15:49:21.404Z,4.28
2018-08-31T15:51:54.854Z,4.60
2018-08-31T15:54:27.896Z,4.08
2018-08-31T15:57:00.885Z,4.12
2018-08-31T15:59:33.833Z,4.25
2018-08-31T16:02:07.267Z,4.50
2018-08-31T16:04:40.402Z,4.42
2018-08-31T16:07:13.413Z,4.33
2018-08-31T16:09:46.378Z,4.05
2018-08-31T16:12:19.612Z,3.80
2018-08-31T16:14:52.755Z,3.87
2018-08-31T16:17:25.920Z,3.98
2018-08-31T16:19:59.099Z,3.52
2018-08-31T16:22:32.140Z,5.05
2018-08-31T16:25:05.432Z,3.67
2018-08-31T16:27:38.907Z,3.77
2018-08-31T16:30:11.996Z,4.20
2018-08-31T16:32:45.162Z,3.70
2018-08-31T16:35:18.149Z,4.58
2018-08-31T16:37:51.306Z,4.40
2018-08-31T16:40:24.348Z,4.78
2018-08-31T16:42:57.387Z,5.22
2018-08-31T16:45:30.493Z,4.85
2018-08-31T16:48:03.673Z,3.67
2018-08-31T16:50:36.763Z,3.60
2018-08-31T16:53:09.905Z,4.37
2018-08-31T16:55:42.917Z,3.02
2018-08-31T16:58:15.973Z,3.62
2018-08-31T17:00:50.209Z,3.90
2018-08-31T17:03:23.345Z,2.83
2018-08-31T17:05:56.413Z,3.37
2018-08-31T17:08:29.640Z,2.92
2018-08-31T17:11:02.791Z,2.83
2018-08-31T17:13:36.321Z,3.17
2018-08-31T17:16:09.305Z,3.55
2018-08-31T17:18:42.528Z,2.90
2018-08-31T17:21:15.542Z,3.52
2018-08-31T17:23:48.709Z,2.98
2018-08-31T17:26:27.567Z,3.50
2018-08-31T17:29:06.340Z,3.98
2018-08-31T17:31:45.178Z,2.80
2018-08-31T17:34:24.103Z,3.62
2018-08-31T17:37:02.987Z,2.98
2018-08-31T17:39:35.992Z,3.77
2018-08-31T17:42:09.670Z,2.98
2018-08-31T17:44:42.794Z,2.90
2018-08-31T17:47:15.894Z,2.92
2018-08-31T17:49:49.028Z,4.08
2018-08-31T17:52:22.191Z,4.10
2018-08-31T17:54:55.205Z,3.45
2018-08-31T17:57:28.419Z,4.65
2018-08-31T18:00:01.624Z,3.98
2018-08-31T18:02:34.636Z,3.77
2018-08-31T18:05:07.587Z,3.70
2018-08-31T18:07:40.784Z,5.12
2018-08-31T18:10:13.767Z,2.90
2018-08-31T18:12:46.904Z,2.70
2018-08-31T18:15:26.993Z,3.10
2018-08-31T18:18:00.131Z,3.33
2018-08-31T18:20:33.289Z,3.98
2018-08-31T18:23:06.437Z,3.50
2018-08-31T18:25:39.740Z,3.42
2018-08-31T18:28:12.696Z,4.15
2018-08-31T18:30:45.711Z,3.35
2018-08-31T18:33:18.846Z,3.75
2018-08-31T18:35:51.963Z,4.25
2018-08-31T18:38:25.196Z,3.08
2018-08-31T18:40:58.300Z,3.50
2018-08-31T18:43:31.337Z,3.62
2018-08-31T18:46:04.387Z,3.55
2018-08-31T18:48:37.456Z,3.67
2018-08-31T18:51:10.563Z,4.42
2018-08-31T18:53:43.627Z,3.40
2018-08-31T18:56:16.833Z,3.70
2018-08-31T18:58:49.896Z,3.62
2018-08-31T19:01:22.962Z,3.75
2018-08-31T19:03:55.962Z,3.37
2018-08-31T19:06:29.217Z,3.33
2018-08-31T19:09:02.681Z,4.47
2018-08-31T19:11:35.683Z,4.92
2018-08-31T19:14:09.386Z,3.87
2018-08-31T19:16:42.548Z,4.47
2018-08-31T19:19:15.757Z,3.62
2018-08-31T19:21:48.709Z,4.03
2018-08-31T19:24:21.738Z,3.12
2018-08-31T19:26:56.190Z,3.20
2018-08-31T19:29:29.195Z,3.08
2018-08-31T19:32:02.303Z,3.45
2018-08-31T19:34:36.185Z,4.62
2018-08-31T19:37:09.326Z,4.55
2018-08-31T19:39:42.301Z,3.50
2018-08-31T19:42:15.701Z,2.80
2018-08-31T19:44:48.769Z,3.20
2018-08-31T19:47:21.759Z,3.55
2018-08-31T19:49:54.843Z,3.20
2018-08-31T19:52:27.919Z,3.05
2018-08-31T19:55:01.514Z,3.62
2018-08-31T19:57:34.442Z,4.55
2018-08-31T20:00:07.426Z,3.80
2018-08-31T20:02:40.354Z,3.70
2018-08-31T20:05:13.398Z,4.42
2018-08-31T20:07:47.288Z,3.90
2018-08-31T20:10:20.256Z,4.03
2018-08-31T20:12:53.458Z,4.65
2018-08-31T20:15:26.884Z,4.72
2018-08-31T20:17:59.920Z,4.22
2018-08-31T20:20:33.102Z,4.12
2018-08-31T20:23:06.208Z,4.17
2018-08-31T20:25:39.231Z,4.33
2018-08-31T20:28:12.359Z,4.50
2018-08-31T20:30:45.354Z,4.30
2018-08-31T20:33:18.569Z,5.03
2018-08-31T20:35:51.761Z,4.35
2018-08-31T20:38:24.864Z,4.25
2018-08-31T20:40:58.448Z,4.20
2018-08-31T20:43:31.467Z,4.30
2018-08-31T20:46:04.762Z,3.72
2018-08-31T20:48:39.390Z,3.35
2018-08-31T20:51:12.555Z,4.75
2018-08-31T20:53:45.865Z,4.42
2018-08-31T20:56:19.021Z,4.15
2018-08-31T20:58:52.144Z,3.85
2018-08-31T21:01:25.464Z,4.12
2018-08-31T21:03:58.646Z,4.50
2018-08-31T21:06:31.789Z,4.50
2018-08-31T21:09:07.078Z,4.42
2018-08-31T21:11:40.241Z,5.47
2018-08-31T21:14:13.467Z,4.03
2018-08-31T21:16:46.577Z,5.20
2018-08-31T21:19:19.855Z,3.60
2018-08-31T21:21:53.143Z,4.25
2018-08-31T21:24:26.537Z,3.80
2018-08-31T21:26:59.756Z,2.90
2018-08-31T21:29:32.879Z,3.77
2018-08-31T21:32:06.165Z,3.50
2018-08-31T21:34:39.341Z,3.33
2018-08-31T21:37:12.447Z,4.05
2018-08-31T21:39:45.791Z,3.80
2018-08-31T21:42:19.217Z,4.03
2018-08-31T21:44:52.305Z,3.65
2018-08-31T21:47:25.309Z,3.50
2018-08-31T21:49:58.495Z,3.80
2018-08-31T21:52:31.480Z,3.87
2018-08-31T21:55:04.775Z,4.53
2018-08-31T21:57:38.175Z,4.00
2018-08-31T22:00:13.711Z,5.10
2018-08-31T22:02:47.351Z,4.47
2018-08-31T22:05:20.712Z,4.67
2018-08-31T22:07:53.683Z,7.28
2018-08-31T22:10:26.932Z,7.53
2018-08-31T22:13:00.052Z,5.47
2018-08-31T22:15:34.260Z,5.78
2018-08-31T22:18:07.482Z,5.25
2018-08-31T22:20:40.501Z,5.37
2018-08-31T22:23:13.480Z,5.35
2018-08-31T22:25:46.561Z,4.10
2018-08-31T22:28:19.743Z,4.35
2018-08-31T22:30:52.715Z,4.62
2018-08-31T22:33:25.743Z,4.15
2018-08-31T22:35:58.891Z,4.70
2018-08-31T22:38:32.022Z,4.58
2018-08-31T22:41:05.089Z,5.03
2018-08-31T22:43:44.067Z,4.17
2018-08-31T22:46:18.243Z,4.50
2018-08-31T22:48:51.863Z,4.97
2018-08-31T22:51:25.128Z,4.33
2018-08-31T22:53:58.224Z,4.50
2018-08-31T22:56:31.411Z,4.12
2018-08-31T22:59:04.599Z,5.05
2018-08-31T23:01:37.939Z,4.37
2018-08-31T23:04:11.182Z,4.25
2018-08-31T23:06:44.204Z,4.05
2018-08-31T23:09:17.182Z,4.50
2018-08-31T23:11:50.184Z,5.03
2018-08-31T23:14:23.288Z,3.58
2018-08-31T23:16:56.494Z,5.45
2018-08-31T23:19:29.608Z,3.47
2018-08-31T23:22:02.691Z,5.65
2018-08-31T23:24:35.939Z,4.20
2018-08-31T23:27:08.895Z,4.30
2018-08-31T23:29:41.929Z,4.42
2018-08-31T23:32:15.027Z,4.57
2018-08-31T23:34:48.004Z,4.10
2018-08-31T23:37:21.160Z,3.65
2018-08-31T23:39:54.320Z,3.42
2018-08-31T23:42:27.348Z,3.60
2018-08-31T23:45:00.388Z,4.22
2018-08-31T23:47:33.380Z,3.52
2018-08-31T23:50:06.372Z,3.70
2018-08-31T23:52:39.369Z,3.80
2018-08-31T23:55:12.434Z,5.30
2018-08-31T23:57:45.344Z,3.70
